首页
METAR-TAF:

METAR-TAF

机场 :

真纳国际机场

卡拉奇, 巴基斯坦

纬度: 24-54N, 经度: 067-08E, 海拔: 21米

当前天气观测

该预报发布于32分钟前的17:25 UTC
风速10节,风向西转西南
温度 31°C
湿度 66%
气压 1000 hPa
能見度: 6000
多云层高于2000英尺

METAR: OPKC 231725Z 24010KT 6000 BKN020 31/24 Q1000 NOSIG

时间: 22:57 (17:57 UTC)

预报

该预报发布于1小时和57分钟前的16:00 UTC
预报有效从23日的 18点(UTC)到 24日的 24点(UTC)
风速8节,风向西转西南,有时为18节阵风
能見度: 6000
多云层高于2000英尺
从 23日的 2100点(UTC)
风速5节,风向西转西南,有时为15节阵风
能見度: 5000
散云层高于1800英尺
多云层高于2000英尺
从 24日的 0900点(UTC)
风速8节,风向西转西南,有时为18节阵风
能見度: 6000
多云层高于2000英尺
短暂存在
从 24日的 21点(UTC)到 24日的 24点(UTC)
风速5节,风向西转西南,有时为15节阵风
能見度: 4000
散云层高于1800英尺
多云层高于2000英尺
毛毛雨

TAF: OPKC 231600Z 2318/2424 24008G18KT 6000 BKN020 FM232100 25005G15KT 5000 FU SCT018 BKN020 FM240900 24008G18KT 6000 BKN020 TEMPO 2421/2424 25005G15KT 4000 DZ SCT018 BKN020

超过4000个机场的气象观测和天气预报(METAR&TAF报告)。

可查询的气象台以黄色和红色小点在地图上表示。

将鼠标移到小点上方,可查看气象台名称。

然后点击查看天气观测和预报。

如需切换地图:点击带黑十字的绿色按钮放大地图;点击带横线的绿色按钮缩小地图;或者点击绿色箭头查看邻近地区的地图。


METAR-TAF: